Ikermit

KL  EN  DA
ASIAQ
Weather Now GREENLAND SURVEY
Updated [WGT/WGST] Temperature [°C] Wind [m/s] Air pressure [hPa] Relative humidity [%] Precipitation [mm]
Present Wind chill Speed Max
25.02 08:00n/an/an/an/an/an/an/a
25.02 07:00-13,0-25,312,4 ⇘19,099456n/a
25.02 06:00-13,2-26,314,4 ⇘19,099362n/a
25.02 05:00-13,2-24,610,3 ⇘12,999363n/a
25.02 04:00-13,4-26,213,4 ⇘17,099362n/a
25.02 03:00-13,4-26,915,4 ⇘20,699258n/a
25.02 02:00-13,9-27,414,9 ⇘20,699264n/a
25.02 01:00-13,7-27,114,9 ⇘19,699262n/a
25.02 00:00-13,6-26,613,9 ⇘19,699160n/a
24.02 23:00-13,9-26,913,4 ⇘18,599162n/a
24.02 22:00-14,1-27,313,9 ⇘16,599162n/a
24.02 21:00-14,3-27,212,9 ⇘16,099158n/a
24.02 20:00-14,0-27,013,4 ⇘17,599056n/a
24.02 19:00-14,7-27,612,4 ⇘16,099059n/a
24.02 18:00-14,1-25,810,3 ⇘13,499053n/a
24.02 17:00-14,2-23,66,2 ⇒7,799053n/a
24.02 16:00-12,8-20,64,6 ⇘5,199052n/a
24.02 15:00-13,0-19,23,1 ⇘3,698956n/a
24.02 14:00-12,4-19,64,1 ⇘4,698947n/a
24.02 13:00-12,2-20,35,1 ⇘5,798850n/a
24.02 12:00-12,3-20,85,7 ⇘6,798846n/a
24.02 11:00-12,9-20,74,6 ⇒5,198946n/a
24.02 10:00-12,7-18,93,1 ⇒4,198941n/a
24.02 09:00-12,6-20,34,6 ⇘5,198940n/a
24.02 08:00-13,2-22,05,7 ⇘6,798943n/a
Position: (64.781944444,-40.30166666)

[Back]